sensor_id;sensor_type;location;lat;lon;timestamp;P1;durP1;ratioP1;P2;durP2;ratioP2
44270;SDS011;29963;44.594;11.368;2022-07-22T00:01:53;4.93;;;2.42;;
44270;SDS011;29963;44.594;11.368;2022-07-22T00:04:18;6.32;;;2.45;;
44270;SDS011;29963;44.594;11.368;2022-07-22T00:06:44;7.47;;;2.42;;
44270;SDS011;29963;44.594;11.368;2022-07-22T00:09:10;4.32;;;2.15;;
44270;SDS011;29963;44.594;11.368;2022-07-22T00:11:36;7.43;;;2.70;;
44270;SDS011;29963;44.594;11.368;2022-07-22T00:14:01;10.45;;;3.03;;
44270;SDS011;29963;44.594;11.368;2022-07-22T00:16:27;10.80;;;2.67;;
44270;SDS011;29963;44.594;11.368;2022-07-22T00:18:53;6.22;;;2.40;;
44270;SDS011;29963;44.594;11.368;2022-07-22T00:21:18;9.73;;;2.95;;
44270;SDS011;29963;44.594;11.368;2022-07-22T00:23:44;5.78;;;2.25;;
44270;SDS011;29963;44.594;11.368;2022-07-22T00:26:10;4.35;;;2.60;;
44270;SDS011;29963;44.594;11.368;2022-07-22T00:28:35;5.57;;;2.63;;
44270;SDS011;29963;44.594;11.368;2022-07-22T00:31:01;5.18;;;2.45;;
44270;SDS011;29963;44.594;11.368;2022-07-22T00:33:27;6.03;;;2.75;;
44270;SDS011;29963;44.594;11.368;2022-07-22T00:35:53;4.05;;;2.90;;
44270;SDS011;29963;44.594;11.368;2022-07-22T00:38:19;5.30;;;2.65;;
44270;SDS011;29963;44.594;11.368;2022-07-22T00:40:44;3.85;;;2.55;;
44270;SDS011;29963;44.594;11.368;2022-07-22T00:43:10;7.72;;;2.75;;
44270;SDS011;29963;44.594;11.368;2022-07-22T00:45:36;5.13;;;2.17;;
44270;SDS011;29963;44.594;11.368;2022-07-22T00:48:02;4.88;;;2.92;;
44270;SDS011;29963;44.594;11.368;2022-07-22T00:50:28;4.30;;;2.30;;
44270;SDS011;29963;44.594;11.368;2022-07-22T00:52:54;3.85;;;2.88;;
44270;SDS011;29963;44.594;11.368;2022-07-22T00:55:20;3.70;;;2.80;;
44270;SDS011;29963;44.594;11.368;2022-07-22T00:57:46;8.35;;;2.67;;
44270;SDS011;29963;44.594;11.368;2022-07-22T01:00:14;8.45;;;2.88;;
44270;SDS011;29963;44.594;11.368;2022-07-22T01:02:42;5.45;;;2.35;;
44270;SDS011;29963;44.594;11.368;2022-07-22T01:05:08;4.75;;;2.35;;
44270;SDS011;29963;44.594;11.368;2022-07-22T01:07:33;4.68;;;3.58;;
44270;SDS011;29963;44.594;11.368;2022-07-22T01:09:59;7.22;;;3.00;;
44270;SDS011;29963;44.594;11.368;2022-07-22T01:12:25;9.18;;;2.72;;
44270;SDS011;29963;44.594;11.368;2022-07-22T01:14:53;3.53;;;2.78;;
44270;SDS011;29963;44.594;11.368;2022-07-22T01:17:19;5.55;;;2.75;;
44270;SDS011;29963;44.594;11.368;2022-07-22T01:19:45;5.07;;;2.47;;
44270;SDS011;29963;44.594;11.368;2022-07-22T01:22:11;6.38;;;3.03;;
44270;SDS011;29963;44.594;11.368;2022-07-22T01:24:37;3.83;;;2.78;;
44270;SDS011;29963;44.594;11.368;2022-07-22T01:27:02;7.82;;;2.92;;
44270;SDS011;29963;44.594;11.368;2022-07-22T01:29:28;5.00;;;3.08;;
44270;SDS011;29963;44.594;11.368;2022-07-22T01:31:54;5.68;;;2.83;;
44270;SDS011;29963;44.594;11.368;2022-07-22T01:34:20;4.07;;;2.97;;
44270;SDS011;29963;44.594;11.368;2022-07-22T01:36:45;3.65;;;2.70;;
44270;SDS011;29963;44.594;11.368;2022-07-22T01:39:11;8.25;;;3.53;;
44270;SDS011;29963;44.594;11.368;2022-07-22T01:41:37;4.43;;;3.33;;
44270;SDS011;29963;44.594;11.368;2022-07-22T01:44:03;4.80;;;3.22;;
44270;SDS011;29963;44.594;11.368;2022-07-22T01:46:29;3.45;;;3.15;;
44270;SDS011;29963;44.594;11.368;2022-07-22T01:48:55;4.80;;;3.42;;
44270;SDS011;29963;44.594;11.368;2022-07-22T01:51:20;4.20;;;3.25;;
44270;SDS011;29963;44.594;11.368;2022-07-22T01:53:46;6.35;;;2.90;;
44270;SDS011;29963;44.594;11.368;2022-07-22T01:56:12;5.50;;;2.92;;
44270;SDS011;29963;44.594;11.368;2022-07-22T01:58:38;6.20;;;3.47;;
44270;SDS011;29963;44.594;11.368;2022-07-22T02:01:04;6.95;;;3.47;;
44270;SDS011;29963;44.594;11.368;2022-07-22T02:03:29;5.25;;;3.20;;
44270;SDS011;29963;44.594;11.368;2022-07-22T02:05:55;8.50;;;3.20;;
44270;SDS011;29963;44.594;11.368;2022-07-22T02:08:21;5.15;;;3.28;;
44270;SDS011;29963;44.594;11.368;2022-07-22T02:10:47;5.32;;;3.45;;
44270;SDS011;29963;44.594;11.368;2022-07-22T02:13:12;6.93;;;3.42;;
44270;SDS011;29963;44.594;11.368;2022-07-22T02:15:38;9.90;;;3.47;;
44270;SDS011;29963;44.594;11.368;2022-07-22T02:18:23;7.00;;;3.60;;
44270;SDS011;29963;44.594;11.368;2022-07-22T02:20:50;6.50;;;3.72;;
44270;SDS011;29963;44.594;11.368;2022-07-22T02:23:16;4.85;;;3.35;;
44270;SDS011;29963;44.594;11.368;2022-07-22T02:25:42;5.15;;;3.78;;
44270;SDS011;29963;44.594;11.368;2022-07-22T02:28:08;5.80;;;3.45;;
44270;SDS011;29963;44.594;11.368;2022-07-22T02:30:33;5.03;;;3.95;;
44270;SDS011;29963;44.594;11.368;2022-07-22T02:32:59;4.35;;;3.60;;
44270;SDS011;29963;44.594;11.368;2022-07-22T02:35:25;5.85;;;4.25;;
44270;SDS011;29963;44.594;11.368;2022-07-22T02:37:54;5.10;;;4.05;;
44270;SDS011;29963;44.594;11.368;2022-07-22T02:40:19;5.32;;;3.30;;
44270;SDS011;29963;44.594;11.368;2022-07-22T02:42:45;9.82;;;4.45;;
44270;SDS011;29963;44.594;11.368;2022-07-22T02:45:10;5.68;;;3.50;;
44270;SDS011;29963;44.594;11.368;2022-07-22T02:47:53;5.28;;;3.70;;
44270;SDS011;29963;44.594;11.368;2022-07-22T02:50:20;8.10;;;3.92;;
44270;SDS011;29963;44.594;11.368;2022-07-22T02:52:47;4.90;;;4.47;;
44270;SDS011;29963;44.594;11.368;2022-07-22T02:55:13;9.05;;;4.13;;
44270;SDS011;29963;44.594;11.368;2022-07-22T02:57:39;9.18;;;4.65;;
44270;SDS011;29963;44.594;11.368;2022-07-22T03:00:06;5.07;;;4.03;;
44270;SDS011;29963;44.594;11.368;2022-07-22T03:02:33;5.75;;;4.63;;
44270;SDS011;29963;44.594;11.368;2022-07-22T03:05:00;7.03;;;4.65;;
44270;SDS011;29963;44.594;11.368;2022-07-22T03:07:26;11.10;;;5.47;;
44270;SDS011;29963;44.594;11.368;2022-07-22T03:09:51;10.82;;;4.18;;
44270;SDS011;29963;44.594;11.368;2022-07-22T03:12:17;4.65;;;4.25;;
44270;SDS011;29963;44.594;11.368;2022-07-22T03:14:43;10.32;;;4.82;;
44270;SDS011;29963;44.594;11.368;2022-07-22T03:17:08;12.02;;;4.78;;
44270;SDS011;29963;44.594;11.368;2022-07-22T03:19:34;5.20;;;4.65;;
44270;SDS011;29963;44.594;11.368;2022-07-22T03:22:00;7.03;;;4.75;;
44270;SDS011;29963;44.594;11.368;2022-07-22T03:24:25;5.45;;;4.90;;
44270;SDS011;29963;44.594;11.368;2022-07-22T03:26:51;7.72;;;4.68;;
44270;SDS011;29963;44.594;11.368;2022-07-22T03:29:16;4.72;;;3.78;;
44270;SDS011;29963;44.594;11.368;2022-07-22T03:31:42;5.47;;;3.50;;
44270;SDS011;29963;44.594;11.368;2022-07-22T03:34:08;8.13;;;4.25;;
44270;SDS011;29963;44.594;11.368;2022-07-22T03:36:33;7.47;;;4.63;;
44270;SDS011;29963;44.594;11.368;2022-07-22T03:38:59;6.72;;;3.72;;
44270;SDS011;29963;44.594;11.368;2022-07-22T03:41:25;6.90;;;4.05;;
44270;SDS011;29963;44.594;11.368;2022-07-22T03:43:50;8.60;;;4.93;;
44270;SDS011;29963;44.594;11.368;2022-07-22T03:46:16;5.97;;;4.60;;
44270;SDS011;29963;44.594;11.368;2022-07-22T03:48:42;6.20;;;4.60;;
44270;SDS011;29963;44.594;11.368;2022-07-22T03:51:08;7.30;;;5.40;;
44270;SDS011;29963;44.594;11.368;2022-07-22T03:53:33;8.75;;;4.95;;
44270;SDS011;29963;44.594;11.368;2022-07-22T03:55:59;8.50;;;4.53;;
44270;SDS011;29963;44.594;11.368;2022-07-22T03:58:25;9.45;;;5.18;;
44270;SDS011;29963;44.594;11.368;2022-07-22T04:00:52;7.13;;;4.72;;
44270;SDS011;29963;44.594;11.368;2022-07-22T04:03:18;7.45;;;4.57;;
44270;SDS011;29963;44.594;11.368;2022-07-22T04:05:44;12.60;;;5.85;;
44270;SDS011;29963;44.594;11.368;2022-07-22T04:08:11;11.68;;;4.72;;
44270;SDS011;29963;44.594;11.368;2022-07-22T04:10:40;10.50;;;4.90;;
44270;SDS011;29963;44.594;11.368;2022-07-22T04:13:06;7.70;;;4.80;;
44270;SDS011;29963;44.594;11.368;2022-07-22T04:15:32;8.27;;;4.38;;
44270;SDS011;29963;44.594;11.368;2022-07-22T04:17:57;8.05;;;4.78;;
44270;SDS011;29963;44.594;11.368;2022-07-22T04:20:23;6.22;;;5.15;;
44270;SDS011;29963;44.594;11.368;2022-07-22T04:22:49;8.57;;;5.03;;
44270;SDS011;29963;44.594;11.368;2022-07-22T04:25:14;5.45;;;4.22;;
44270;SDS011;29963;44.594;11.368;2022-07-22T04:27:40;8.57;;;4.25;;
44270;SDS011;29963;44.594;11.368;2022-07-22T04:30:06;6.70;;;5.05;;
44270;SDS011;29963;44.594;11.368;2022-07-22T04:32:32;8.73;;;4.40;;
44270;SDS011;29963;44.594;11.368;2022-07-22T04:34:58;8.90;;;4.50;;
44270;SDS011;29963;44.594;11.368;2022-07-22T04:37:23;6.13;;;4.57;;
44270;SDS011;29963;44.594;11.368;2022-07-22T04:39:49;10.82;;;5.10;;
44270;SDS011;29963;44.594;11.368;2022-07-22T04:42:15;9.18;;;5.95;;
44270;SDS011;29963;44.594;11.368;2022-07-22T04:44:40;12.00;;;5.55;;
44270;SDS011;29963;44.594;11.368;2022-07-22T04:47:06;8.10;;;5.78;;
44270;SDS011;29963;44.594;11.368;2022-07-22T04:49:32;8.45;;;6.65;;
44270;SDS011;29963;44.594;11.368;2022-07-22T04:51:57;7.28;;;6.63;;
44270;SDS011;29963;44.594;11.368;2022-07-22T04:54:23;10.30;;;6.47;;
44270;SDS011;29963;44.594;11.368;2022-07-22T04:56:49;10.32;;;6.80;;
44270;SDS011;29963;44.594;11.368;2022-07-22T04:59:14;12.27;;;7.30;;
44270;SDS011;29963;44.594;11.368;2022-07-22T05:01:40;10.00;;;6.72;;
44270;SDS011;29963;44.594;11.368;2022-07-22T05:04:06;10.80;;;7.15;;
44270;SDS011;29963;44.594;11.368;2022-07-22T05:06:31;10.70;;;7.22;;
44270;SDS011;29963;44.594;11.368;2022-07-22T05:08:57;9.98;;;7.38;;
44270;SDS011;29963;44.594;11.368;2022-07-22T05:11:22;9.50;;;7.30;;
44270;SDS011;29963;44.594;11.368;2022-07-22T05:13:51;8.85;;;6.80;;
44270;SDS011;29963;44.594;11.368;2022-07-22T05:16:17;11.90;;;7.38;;
44270;SDS011;29963;44.594;11.368;2022-07-22T05:18:42;9.40;;;6.88;;
44270;SDS011;29963;44.594;11.368;2022-07-22T05:21:08;9.40;;;7.45;;
44270;SDS011;29963;44.594;11.368;2022-07-22T05:23:34;8.80;;;6.25;;
44270;SDS011;29963;44.594;11.368;2022-07-22T05:25:59;8.55;;;6.82;;
44270;SDS011;29963;44.594;11.368;2022-07-22T05:28:25;12.05;;;6.90;;
44270;SDS011;29963;44.594;11.368;2022-07-22T05:30:51;11.95;;;6.88;;
44270;SDS011;29963;44.594;11.368;2022-07-22T05:33:18;9.32;;;6.20;;
44270;SDS011;29963;44.594;11.368;2022-07-22T05:35:46;14.20;;;7.25;;
44270;SDS011;29963;44.594;11.368;2022-07-22T05:38:12;20.50;;;6.30;;
44270;SDS011;29963;44.594;11.368;2022-07-22T05:40:38;10.13;;;7.50;;
44270;SDS011;29963;44.594;11.368;2022-07-22T05:43:03;11.35;;;7.43;;
44270;SDS011;29963;44.594;11.368;2022-07-22T05:45:29;12.10;;;6.53;;
44270;SDS011;29963;44.594;11.368;2022-07-22T05:47:55;16.63;;;7.80;;
44270;SDS011;29963;44.594;11.368;2022-07-22T05:50:21;38.17;;;7.05;;
44270;SDS011;29963;44.594;11.368;2022-07-22T05:52:47;7.22;;;6.45;;
44270;SDS011;29963;44.594;11.368;2022-07-22T05:55:12;12.57;;;7.10;;
44270;SDS011;29963;44.594;11.368;2022-07-22T05:57:38;12.13;;;6.63;;
44270;SDS011;29963;44.594;11.368;2022-07-22T06:00:04;11.50;;;7.63;;
44270;SDS011;29963;44.594;11.368;2022-07-22T06:02:31;12.65;;;6.25;;
44270;SDS011;29963;44.594;11.368;2022-07-22T06:04:57;10.18;;;6.72;;
44270;SDS011;29963;44.594;11.368;2022-07-22T06:07:25;14.90;;;7.65;;
44270;SDS011;29963;44.594;11.368;2022-07-22T06:09:51;10.88;;;7.38;;
44270;SDS011;29963;44.594;11.368;2022-07-22T06:12:17;7.53;;;6.32;;
44270;SDS011;29963;44.594;11.368;2022-07-22T06:14:43;9.88;;;6.18;;
44270;SDS011;29963;44.594;11.368;2022-07-22T06:17:12;7.50;;;6.30;;
44270;SDS011;29963;44.594;11.368;2022-07-22T06:19:38;11.18;;;6.57;;
44270;SDS011;29963;44.594;11.368;2022-07-22T06:22:04;6.93;;;5.15;;
44270;SDS011;29963;44.594;11.368;2022-07-22T06:24:30;12.07;;;6.30;;
44270;SDS011;29963;44.594;11.368;2022-07-22T06:26:55;9.98;;;5.85;;
44270;SDS011;29963;44.594;11.368;2022-07-22T06:29:21;7.55;;;4.97;;
44270;SDS011;29963;44.594;11.368;2022-07-22T06:31:47;7.28;;;5.25;;
44270;SDS011;29963;44.594;11.368;2022-07-22T06:34:12;12.60;;;5.32;;
44270;SDS011;29963;44.594;11.368;2022-07-22T06:36:38;9.77;;;5.47;;
44270;SDS011;29963;44.594;11.368;2022-07-22T06:39:04;6.15;;;4.65;;
44270;SDS011;29963;44.594;11.368;2022-07-22T06:41:29;6.78;;;5.25;;
44270;SDS011;29963;44.594;11.368;2022-07-22T06:43:55;10.70;;;5.70;;
44270;SDS011;29963;44.594;11.368;2022-07-22T06:46:21;13.13;;;5.95;;
44270;SDS011;29963;44.594;11.368;2022-07-22T06:48:46;7.53;;;6.03;;
44270;SDS011;29963;44.594;11.368;2022-07-22T06:51:15;15.35;;;6.00;;
44270;SDS011;29963;44.594;11.368;2022-07-22T06:53:41;11.90;;;5.55;;
44270;SDS011;29963;44.594;11.368;2022-07-22T06:56:06;8.00;;;5.45;;
44270;SDS011;29963;44.594;11.368;2022-07-22T06:58:32;7.22;;;5.40;;
44270;SDS011;29963;44.594;11.368;2022-07-22T07:00:58;8.35;;;4.35;;
44270;SDS011;29963;44.594;11.368;2022-07-22T07:03:23;10.73;;;5.93;;
44270;SDS011;29963;44.594;11.368;2022-07-22T07:05:50;7.53;;;5.13;;
44270;SDS011;29963;44.594;11.368;2022-07-22T07:08:17;6.72;;;4.82;;
44270;SDS011;29963;44.594;11.368;2022-07-22T07:10:43;7.18;;;4.90;;
44270;SDS011;29963;44.594;11.368;2022-07-22T07:13:08;8.23;;;5.93;;
44270;SDS011;29963;44.594;11.368;2022-07-22T07:15:34;6.68;;;5.05;;
44270;SDS011;29963;44.594;11.368;2022-07-22T07:18:00;8.73;;;5.57;;
44270;SDS011;29963;44.594;11.368;2022-07-22T07:20:26;8.13;;;6.00;;
44270;SDS011;29963;44.594;11.368;2022-07-22T07:22:51;10.95;;;5.18;;
44270;SDS011;29963;44.594;11.368;2022-07-22T07:25:18;6.43;;;4.78;;
44270;SDS011;29963;44.594;11.368;2022-07-22T07:27:43;6.30;;;5.18;;
44270;SDS011;29963;44.594;11.368;2022-07-22T07:30:10;9.50;;;4.65;;
44270;SDS011;29963;44.594;11.368;2022-07-22T07:32:36;7.93;;;5.35;;
44270;SDS011;29963;44.594;11.368;2022-07-22T07:35:03;6.47;;;4.40;;
44270;SDS011;29963;44.594;11.368;2022-07-22T07:37:29;8.27;;;4.75;;
44270;SDS011;29963;44.594;11.368;2022-07-22T07:39:55;7.22;;;4.68;;
44270;SDS011;29963;44.594;11.368;2022-07-22T07:42:24;6.95;;;4.50;;
44270;SDS011;29963;44.594;11.368;2022-07-22T07:44:50;8.35;;;4.38;;
44270;SDS011;29963;44.594;11.368;2022-07-22T07:47:16;5.80;;;4.40;;
44270;SDS011;29963;44.594;11.368;2022-07-22T07:49:46;5.55;;;4.60;;
44270;SDS011;29963;44.594;11.368;2022-07-22T07:52:13;8.82;;;4.28;;
44270;SDS011;29963;44.594;11.368;2022-07-22T07:54:40;8.02;;;4.35;;
44270;SDS011;29963;44.594;11.368;2022-07-22T07:57:06;10.05;;;3.90;;
44270;SDS011;29963;44.594;11.368;2022-07-22T07:59:33;4.95;;;4.45;;
44270;SDS011;29963;44.594;11.368;2022-07-22T08:01:59;5.15;;;4.38;;
44270;SDS011;29963;44.594;11.368;2022-07-22T08:04:25;5.75;;;4.00;;
44270;SDS011;29963;44.594;11.368;2022-07-22T08:06:51;6.32;;;4.82;;
44270;SDS011;29963;44.594;11.368;2022-07-22T08:09:17;9.40;;;4.15;;
44270;SDS011;29963;44.594;11.368;2022-07-22T08:11:43;7.72;;;4.68;;
44270;SDS011;29963;44.594;11.368;2022-07-22T08:14:08;7.97;;;4.15;;
44270;SDS011;29963;44.594;11.368;2022-07-22T08:16:34;7.20;;;4.10;;
44270;SDS011;29963;44.594;11.368;2022-07-22T08:19:00;8.85;;;4.28;;
44270;SDS011;29963;44.594;11.368;2022-07-22T08:21:25;6.40;;;3.88;;
44270;SDS011;29963;44.594;11.368;2022-07-22T08:23:51;4.43;;;3.80;;
44270;SDS011;29963;44.594;11.368;2022-07-22T08:26:18;4.13;;;3.72;;
44270;SDS011;29963;44.594;11.368;2022-07-22T08:28:43;7.55;;;4.60;;
44270;SDS011;29963;44.594;11.368;2022-07-22T08:31:09;8.23;;;4.30;;
44270;SDS011;29963;44.594;11.368;2022-07-22T08:33:35;6.78;;;3.90;;
44270;SDS011;29963;44.594;11.368;2022-07-22T08:36:00;6.82;;;4.30;;
44270;SDS011;29963;44.594;11.368;2022-07-22T08:38:26;8.95;;;4.57;;
44270;SDS011;29963;44.594;11.368;2022-07-22T08:40:54;5.40;;;4.53;;
44270;SDS011;29963;44.594;11.368;2022-07-22T08:43:21;7.55;;;3.28;;
44270;SDS011;29963;44.594;11.368;2022-07-22T08:45:47;4.68;;;3.42;;
44270;SDS011;29963;44.594;11.368;2022-07-22T08:48:13;9.55;;;4.18;;
44270;SDS011;29963;44.594;11.368;2022-07-22T08:50:39;6.20;;;3.83;;
44270;SDS011;29963;44.594;11.368;2022-07-22T08:53:08;8.48;;;4.28;;
44270;SDS011;29963;44.594;11.368;2022-07-22T08:55:43;5.88;;;3.38;;
44270;SDS011;29963;44.594;11.368;2022-07-22T08:58:10;4.68;;;3.80;;
44270;SDS011;29963;44.594;11.368;2022-07-22T09:00:36;4.18;;;3.60;;
44270;SDS011;29963;44.594;11.368;2022-07-22T09:03:22;15.55;;;3.55;;
44270;SDS011;29963;44.594;11.368;2022-07-22T09:05:50;5.10;;;3.88;;
44270;SDS011;29963;44.594;11.368;2022-07-22T09:08:17;11.75;;;4.00;;
44270;SDS011;29963;44.594;11.368;2022-07-22T09:10:43;6.70;;;3.83;;
44270;SDS011;29963;44.594;11.368;2022-07-22T09:13:09;8.40;;;4.00;;
44270;SDS011;29963;44.594;11.368;2022-07-22T09:15:36;5.63;;;4.03;;
44270;SDS011;29963;44.594;11.368;2022-07-22T09:18:06;5.70;;;3.45;;
44270;SDS011;29963;44.594;11.368;2022-07-22T09:20:33;7.15;;;3.55;;
44270;SDS011;29963;44.594;11.368;2022-07-22T09:23:00;4.88;;;3.38;;
44270;SDS011;29963;44.594;11.368;2022-07-22T09:25:28;8.75;;;3.85;;
44270;SDS011;29963;44.594;11.368;2022-07-22T09:28:15;3.88;;;3.45;;
44270;SDS011;29963;44.594;11.368;2022-07-22T09:30:45;5.32;;;3.40;;
44270;SDS011;29963;44.594;11.368;2022-07-22T09:33:11;4.70;;;3.22;;
44270;SDS011;29963;44.594;11.368;2022-07-22T09:35:37;5.28;;;3.65;;
44270;SDS011;29963;44.594;11.368;2022-07-22T09:38:05;6.00;;;3.45;;
44270;SDS011;29963;44.594;11.368;2022-07-22T09:40:36;5.57;;;4.20;;
44270;SDS011;29963;44.594;11.368;2022-07-22T09:43:07;7.97;;;3.72;;
44270;SDS011;29963;44.594;11.368;2022-07-22T09:45:45;9.02;;;3.83;;
44270;SDS011;29963;44.594;11.368;2022-07-22T09:48:11;3.97;;;3.58;;
44270;SDS011;29963;44.594;11.368;2022-07-22T09:50:37;6.57;;;3.63;;
44270;SDS011;29963;44.594;11.368;2022-07-22T09:53:02;3.97;;;3.55;;
44270;SDS011;29963;44.594;11.368;2022-07-22T09:55:28;4.28;;;3.63;;
44270;SDS011;29963;44.594;11.368;2022-07-22T09:57:55;4.68;;;3.85;;
44270;SDS011;29963;44.594;11.368;2022-07-22T10:00:22;4.10;;;3.30;;
44270;SDS011;29963;44.594;11.368;2022-07-22T10:02:53;4.65;;;3.55;;
44270;SDS011;29963;44.594;11.368;2022-07-22T10:05:24;7.38;;;3.80;;
44270;SDS011;29963;44.594;11.368;2022-07-22T10:07:52;3.72;;;3.42;;
44270;SDS011;29963;44.594;11.368;2022-07-22T10:10:20;4.50;;;3.83;;
44270;SDS011;29963;44.594;11.368;2022-07-22T10:12:47;4.93;;;4.35;;
44270;SDS011;29963;44.594;11.368;2022-07-22T10:15:14;5.55;;;4.10;;
44270;SDS011;29963;44.594;11.368;2022-07-22T10:17:41;4.85;;;3.30;;
44270;SDS011;29963;44.594;11.368;2022-07-22T10:20:09;6.88;;;3.78;;
44270;SDS011;29963;44.594;11.368;2022-07-22T10:25:05;5.25;;;3.80;;
44270;SDS011;29963;44.594;11.368;2022-07-22T10:35:59;4.22;;;3.83;;
44270;SDS011;29963;44.594;11.368;2022-07-22T10:38:28;4.53;;;3.95;;
44270;SDS011;29963;44.594;11.368;2022-07-22T10:43:22;7.95;;;4.40;;
44270;SDS011;29963;44.594;11.368;2022-07-22T10:45:52;6.93;;;4.95;;
44270;SDS011;29963;44.594;11.368;2022-07-22T10:51:10;5.15;;;4.65;;
44270;SDS011;29963;44.594;11.368;2022-07-22T10:56:12;8.30;;;4.20;;
44270;SDS011;29963;44.594;11.368;2022-07-22T11:01:35;17.63;;;4.55;;
44270;SDS011;29963;44.594;11.368;2022-07-22T11:04:07;5.13;;;4.22;;
44270;SDS011;29963;44.594;11.368;2022-07-22T11:06:44;7.32;;;4.00;;
44270;SDS011;29963;44.594;11.368;2022-07-22T11:09:12;7.03;;;4.90;;
44270;SDS011;29963;44.594;11.368;2022-07-22T11:14:16;9.63;;;5.30;;
44270;SDS011;29963;44.594;11.368;2022-07-22T11:16:47;12.27;;;9.70;;
44270;SDS011;29963;44.594;11.368;2022-07-22T11:19:18;9.38;;;5.00;;
44270;SDS011;29963;44.594;11.368;2022-07-22T11:21:48;7.43;;;4.65;;
44270;SDS011;29963;44.594;11.368;2022-07-22T11:24:18;9.63;;;4.47;;
44270;SDS011;29963;44.594;11.368;2022-07-22T11:26:46;5.30;;;3.95;;
44270;SDS011;29963;44.594;11.368;2022-07-22T11:29:25;4.22;;;3.78;;
44270;SDS011;29963;44.594;11.368;2022-07-22T11:31:54;7.00;;;4.00;;
44270;SDS011;29963;44.594;11.368;2022-07-22T11:34:21;4.28;;;3.72;;
44270;SDS011;29963;44.594;11.368;2022-07-22T11:36:47;6.25;;;3.65;;
44270;SDS011;29963;44.594;11.368;2022-07-22T11:39:14;5.10;;;3.70;;
44270;SDS011;29963;44.594;11.368;2022-07-22T11:41:46;4.55;;;3.40;;
44270;SDS011;29963;44.594;11.368;2022-07-22T11:44:12;4.05;;;3.42;;
44270;SDS011;29963;44.594;11.368;2022-07-22T11:46:39;4.13;;;3.75;;
44270;SDS011;29963;44.594;11.368;2022-07-22T11:49:07;7.03;;;4.18;;
44270;SDS011;29963;44.594;11.368;2022-07-22T11:51:35;8.20;;;3.95;;
44270;SDS011;29963;44.594;11.368;2022-07-22T11:54:02;5.47;;;4.03;;
44270;SDS011;29963;44.594;11.368;2022-07-22T11:56:32;4.45;;;3.72;;
44270;SDS011;29963;44.594;11.368;2022-07-22T11:58:58;5.53;;;3.50;;
44270;SDS011;29963;44.594;11.368;2022-07-22T12:01:27;6.38;;;3.50;;
44270;SDS011;29963;44.594;11.368;2022-07-22T12:03:57;7.25;;;3.72;;
44270;SDS011;29963;44.594;11.368;2022-07-22T12:06:24;9.32;;;4.07;;
44270;SDS011;29963;44.594;11.368;2022-07-22T12:11:57;6.68;;;3.60;;
44270;SDS011;29963;44.594;11.368;2022-07-22T12:14:24;6.32;;;3.55;;
44270;SDS011;29963;44.594;11.368;2022-07-22T12:17:13;3.72;;;3.20;;
44270;SDS011;29963;44.594;11.368;2022-07-22T12:19:39;5.97;;;3.13;;
44270;SDS011;29963;44.594;11.368;2022-07-22T12:32:01;4.88;;;4.13;;
44270;SDS011;29963;44.594;11.368;2022-07-22T12:37:49;4.80;;;3.33;;
44270;SDS011;29963;44.594;11.368;2022-07-22T12:43:13;3.58;;;3.28;;
44270;SDS011;29963;44.594;11.368;2022-07-22T12:45:31;9.07;;;4.05;;
44270;SDS011;29963;44.594;11.368;2022-07-22T12:55:37;4.97;;;3.88;;
44270;SDS011;29963;44.594;11.368;2022-07-22T12:58:05;8.55;;;4.50;;
44270;SDS011;29963;44.594;11.368;2022-07-22T13:00:33;4.25;;;3.90;;
44270;SDS011;29963;44.594;11.368;2022-07-22T13:03:00;5.57;;;4.80;;
44270;SDS011;29963;44.594;11.368;2022-07-22T13:05:26;4.10;;;3.72;;
44270;SDS011;29963;44.594;11.368;2022-07-22T13:07:52;9.55;;;4.35;;
44270;SDS011;29963;44.594;11.368;2022-07-22T13:10:19;9.93;;;4.72;;
44270;SDS011;29963;44.594;11.368;2022-07-22T13:12:46;4.97;;;4.10;;
44270;SDS011;29963;44.594;11.368;2022-07-22T13:15:12;6.22;;;3.95;;
44270;SDS011;29963;44.594;11.368;2022-07-22T13:17:38;8.63;;;4.82;;
44270;SDS011;29963;44.594;11.368;2022-07-22T13:20:05;7.03;;;4.15;;
44270;SDS011;29963;44.594;11.368;2022-07-22T13:22:33;6.95;;;4.38;;
44270;SDS011;29963;44.594;11.368;2022-07-22T13:24:59;5.32;;;3.70;;
44270;SDS011;29963;44.594;11.368;2022-07-22T13:27:25;6.45;;;4.20;;
44270;SDS011;29963;44.594;11.368;2022-07-22T13:29:51;9.00;;;4.20;;
44270;SDS011;29963;44.594;11.368;2022-07-22T13:32:17;6.25;;;3.88;;
44270;SDS011;29963;44.594;11.368;2022-07-22T13:34:43;4.18;;;3.75;;
44270;SDS011;29963;44.594;11.368;2022-07-22T13:37:09;7.15;;;4.78;;
44270;SDS011;29963;44.594;11.368;2022-07-22T13:39:35;18.02;;;5.72;;
44270;SDS011;29963;44.594;11.368;2022-07-22T13:42:01;7.03;;;4.90;;
44270;SDS011;29963;44.594;11.368;2022-07-22T13:44:27;5.88;;;4.90;;
44270;SDS011;29963;44.594;11.368;2022-07-22T13:46:55;9.88;;;4.32;;
44270;SDS011;29963;44.594;11.368;2022-07-22T13:49:24;5.35;;;4.85;;
44270;SDS011;29963;44.594;11.368;2022-07-22T13:51:50;16.52;;;4.55;;
44270;SDS011;29963;44.594;11.368;2022-07-22T13:54:17;4.82;;;4.30;;
44270;SDS011;29963;44.594;11.368;2022-07-22T13:56:43;6.03;;;3.85;;
44270;SDS011;29963;44.594;11.368;2022-07-22T13:59:12;9.82;;;4.40;;
44270;SDS011;29963;44.594;11.368;2022-07-22T14:01:38;8.35;;;4.80;;
44270;SDS011;29963;44.594;11.368;2022-07-22T14:04:04;4.57;;;4.10;;
44270;SDS011;29963;44.594;11.368;2022-07-22T14:06:31;8.98;;;4.63;;
44270;SDS011;29963;44.594;11.368;2022-07-22T14:08:57;5.50;;;4.15;;
44270;SDS011;29963;44.594;11.368;2022-07-22T14:11:23;6.25;;;3.75;;
44270;SDS011;29963;44.594;11.368;2022-07-22T14:13:49;6.85;;;4.00;;
44270;SDS011;29963;44.594;11.368;2022-07-22T14:16:15;5.72;;;4.03;;
44270;SDS011;29963;44.594;11.368;2022-07-22T14:19:00;12.50;;;4.50;;
44270;SDS011;29963;44.594;11.368;2022-07-22T14:21:37;9.02;;;4.28;;
44270;SDS011;29963;44.594;11.368;2022-07-22T14:24:04;12.00;;;4.70;;
44270;SDS011;29963;44.594;11.368;2022-07-22T14:26:31;5.72;;;4.65;;
44270;SDS011;29963;44.594;11.368;2022-07-22T14:28:58;4.57;;;4.18;;
44270;SDS011;29963;44.594;11.368;2022-07-22T14:31:23;7.50;;;4.25;;
44270;SDS011;29963;44.594;11.368;2022-07-22T14:33:50;6.57;;;4.15;;
44270;SDS011;29963;44.594;11.368;2022-07-22T14:36:15;7.38;;;4.18;;
44270;SDS011;29963;44.594;11.368;2022-07-22T14:38:42;5.72;;;3.85;;
44270;SDS011;29963;44.594;11.368;2022-07-22T14:41:08;6.45;;;4.60;;
44270;SDS011;29963;44.594;11.368;2022-07-22T14:43:34;7.00;;;4.35;;
44270;SDS011;29963;44.594;11.368;2022-07-22T14:46:01;5.90;;;3.90;;
44270;SDS011;29963;44.594;11.368;2022-07-22T14:48:29;4.78;;;4.32;;
44270;SDS011;29963;44.594;11.368;2022-07-22T14:50:56;5.72;;;4.75;;
44270;SDS011;29963;44.594;11.368;2022-07-22T14:53:22;8.98;;;4.53;;
44270;SDS011;29963;44.594;11.368;2022-07-22T14:55:48;6.40;;;4.28;;
44270;SDS011;29963;44.594;11.368;2022-07-22T14:58:14;5.90;;;4.72;;
44270;SDS011;29963;44.594;11.368;2022-07-22T15:00:40;4.18;;;3.85;;
44270;SDS011;29963;44.594;11.368;2022-07-22T15:03:06;6.63;;;4.10;;
44270;SDS011;29963;44.594;11.368;2022-07-22T15:05:32;7.40;;;4.55;;
44270;SDS011;29963;44.594;11.368;2022-07-22T15:07:58;4.28;;;3.88;;
44270;SDS011;29963;44.594;11.368;2022-07-22T15:10:24;4.47;;;4.07;;
44270;SDS011;29963;44.594;11.368;2022-07-22T15:12:53;7.25;;;4.57;;
44270;SDS011;29963;44.594;11.368;2022-07-22T15:15:19;5.57;;;4.07;;
44270;SDS011;29963;44.594;11.368;2022-07-22T15:17:45;9.55;;;5.47;;
44270;SDS011;29963;44.594;11.368;2022-07-22T15:20:11;6.20;;;4.28;;
44270;SDS011;29963;44.594;11.368;2022-07-22T15:22:37;4.88;;;3.97;;